world map with DJJ marked

DJJ - Airport

This information may not be accurate or current and is not valid for navigation or flight planning. No warranty of fitness for any purpose is made or implied.

flag of Papuaflag of Indonesia

Donate via PayPal

Additional information is available on the NEW Great Circle Mapper

Location
City:  Jayapura, Papua, Indonesia
Near (Alt.):Djayapura
Name:Sentani Airport
ICAO / IATA:WAJJ / DJJ

Details
Type:Airport (Aerodrome, Airfield)
Use:Public/Civil
Latitude:2°34'37"S (-2.576952)
Longitude:140°30'59"E (140.516372)
Datum:WGS 1984
Elevation:289 ft (88 m)
Runways:1
Longest:7161 × 148 ft (2183 × 45 m)

Time
Timezone:UTC+9 (DST+11)
Local Time:

Weather
METAR:WAJJ  161600Z 29008KT 7000 -RA SCT010 26/23 Q1005 NOSIG
TAF:WAJJ  (expired)

Related Locations
Nearby:
Farthest:JJD: 12049 mi / 19391 km
Cruz [Polo Turístico de Jericoacoara], CE, BR

Find:

   beyond  
but within

Other Information
Maps:
Sources:

  


 


Great Circle Mapper   Great Circle Mapper
Great Circle Mapper FAQ   Great Circle Mapper FAQ
  Karl's Home Page
KLS˛   KLS˛ Home
   GC on Facebook
Airlines of the World   Airlines of the World
Donate via PayPal


Copyright © 2004-2019, Karl L. Swartz. All rights reserved.
All trademarks mentioned herein belong to their respective owners.

Please see credits for attribution and copyright information.

Karl Swartz <karl@kls2.com>
  Powered by FreeBSD
Valid HTML 4.01!
Labeled with ICRA
hCard Microformat
Geo Microformat